sensor_id;sensor_type;location;lat;lon;timestamp;pressure;altitude;pressure_sealevel;temperature;humidity
52949;BME280;38812;50.942;3.644;2023-10-08T00:01:21;102360.69;;;13.30;nan
52949;BME280;38812;50.942;3.644;2023-10-08T00:03:47;102362.47;;;13.25;nan
52949;BME280;38812;50.942;3.644;2023-10-08T00:06:17;102368.63;;;13.27;nan
52949;BME280;38812;50.942;3.644;2023-10-08T00:08:44;102375.75;;;13.19;nan
52949;BME280;38812;50.942;3.644;2023-10-08T00:11:10;102374.91;;;13.08;nan
52949;BME280;38812;50.942;3.644;2023-10-08T00:13:36;102375.78;;;13.07;nan
52949;BME280;38812;50.942;3.644;2023-10-08T00:16:12;102374.94;;;13.03;nan
52949;BME280;38812;50.942;3.644;2023-10-08T00:18:42;102380.19;;;13.05;nan
52949;BME280;38812;50.942;3.644;2023-10-08T00:21:14;102382.84;;;13.02;nan
52949;BME280;38812;50.942;3.644;2023-10-08T00:23:40;102379.34;;;13.00;nan
52949;BME280;38812;50.942;3.644;2023-10-08T00:26:10;102390.81;;;12.97;nan
52949;BME280;38812;50.942;3.644;2023-10-08T00:28:35;102386.44;;;12.92;nan
52949;BME280;38812;50.942;3.644;2023-10-08T00:31:02;102387.31;;;12.95;nan
52949;BME280;38812;50.942;3.644;2023-10-08T00:33:40;102389.06;;;12.96;nan
52949;BME280;38812;50.942;3.644;2023-10-08T00:36:09;102383.81;;;12.93;nan
52949;BME280;38812;50.942;3.644;2023-10-08T00:38:45;102386.44;;;12.92;nan
52949;BME280;38812;50.942;3.644;2023-10-08T00:41:14;102392.59;;;12.95;nan
52949;BME280;38812;50.942;3.644;2023-10-08T00:43:47;102389.09;;;12.93;nan
52949;BME280;38812;50.942;3.644;2023-10-08T00:46:13;102419.84;;;12.99;nan
52949;BME280;38812;50.942;3.644;2023-10-08T00:48:50;102404.09;;;12.82;nan
52949;BME280;38812;50.942;3.644;2023-10-08T00:51:20;102405.91;;;12.69;nan
52949;BME280;38812;50.942;3.644;2023-10-08T00:54:01;102419.13;;;12.59;nan
52949;BME280;38812;50.942;3.644;2023-10-08T00:56:45;102409.53;;;12.53;nan
52949;BME280;38812;50.942;3.644;2023-10-08T00:59:14;102409.56;;;12.41;nan
52949;BME280;38812;50.942;3.644;2023-10-08T01:01:44;102405.22;;;12.31;nan
52949;BME280;38812;50.942;3.644;2023-10-08T01:04:25;102398.19;;;12.22;nan
52949;BME280;38812;50.942;3.644;2023-10-08T01:07:01;102413.13;;;12.20;nan
52949;BME280;38812;50.942;3.644;2023-10-08T01:09:35;102407.88;;;12.25;nan
52949;BME280;38812;50.942;3.644;2023-10-08T01:12:08;102409.63;;;12.29;nan
52949;BME280;38812;50.942;3.644;2023-10-08T01:14:37;102403.47;;;12.28;nan
52949;BME280;38812;50.942;3.644;2023-10-08T01:17:02;102392.84;;;12.41;nan
52949;BME280;38812;50.942;3.644;2023-10-08T01:19:30;102395.50;;;12.42;nan
52949;BME280;38812;50.942;3.644;2023-10-08T01:22:04;102390.28;;;12.30;nan
52949;BME280;38812;50.942;3.644;2023-10-08T01:24:32;102388.53;;;12.24;nan
52949;BME280;38812;50.942;3.644;2023-10-08T01:27:01;102382.38;;;12.27;nan
52949;BME280;38812;50.942;3.644;2023-10-08T01:29:34;102400.81;;;12.33;nan
52949;BME280;38812;50.942;3.644;2023-10-08T01:32:01;102389.41;;;12.28;nan
52949;BME280;38812;50.942;3.644;2023-10-08T01:34:27;102404.38;;;12.14;nan
52949;BME280;38812;50.942;3.644;2023-10-08T01:36:56;102392.97;;;12.12;nan
52949;BME280;38812;50.942;3.644;2023-10-08T01:39:27;102395.59;;;12.13;nan
52949;BME280;38812;50.942;3.644;2023-10-08T01:41:52;102371.00;;;12.16;nan
52949;BME280;38812;50.942;3.644;2023-10-08T01:44:17;102360.44;;;12.22;nan
52949;BME280;38812;50.942;3.644;2023-10-08T01:46:43;102356.94;;;12.20;nan
52949;BME280;38812;50.942;3.644;2023-10-08T01:49:08;102367.47;;;12.23;nan
52949;BME280;38812;50.942;3.644;2023-10-08T01:51:39;102363.94;;;12.27;nan
52949;BME280;38812;50.942;3.644;2023-10-08T01:54:12;102363.03;;;12.32;nan
52949;BME280;38812;50.942;3.644;2023-10-08T01:56:41;102361.31;;;12.28;nan
52949;BME280;38812;50.942;3.644;2023-10-08T01:59:10;102360.41;;;12.28;nan
52949;BME280;38812;50.942;3.644;2023-10-08T02:01:37;102356.03;;;12.25;nan
52949;BME280;38812;50.942;3.644;2023-10-08T02:04:05;102343.72;;;12.29;nan
52949;BME280;38812;50.942;3.644;2023-10-08T02:06:32;102341.09;;;12.32;nan
52949;BME280;38812;50.942;3.644;2023-10-08T02:08:58;102340.16;;;12.34;nan
52949;BME280;38812;50.942;3.644;2023-10-08T02:11:24;102351.63;;;12.32;nan
52949;BME280;38812;50.942;3.644;2023-10-08T02:13:49;102356.00;;;12.33;nan
52949;BME280;38812;50.942;3.644;2023-10-08T02:16:19;102354.28;;;12.24;nan
52949;BME280;38812;50.942;3.644;2023-10-08T02:18:47;102342.00;;;12.19;nan
52949;BME280;38812;50.942;3.644;2023-10-08T02:21:13;102335.84;;;12.17;nan
52949;BME280;38812;50.942;3.644;2023-10-08T02:23:39;102345.50;;;12.19;nan
52949;BME280;38812;50.942;3.644;2023-10-08T02:26:04;102346.41;;;12.17;nan
52949;BME280;38812;50.942;3.644;2023-10-08T02:28:31;102335.03;;;12.09;nan
52949;BME280;38812;50.942;3.644;2023-10-08T02:30:58;102327.13;;;12.04;nan
52949;BME280;38812;50.942;3.644;2023-10-08T02:33:26;102332.41;;;12.09;nan
52949;BME280;38812;50.942;3.644;2023-10-08T02:35:52;102325.38;;;12.11;nan
52949;BME280;38812;50.942;3.644;2023-10-08T02:38:18;102345.56;;;12.04;nan
52949;BME280;38812;50.942;3.644;2023-10-08T02:40:46;102331.53;;;12.04;nan
52949;BME280;38812;50.942;3.644;2023-10-08T02:43:13;102335.03;;;12.04;nan
52949;BME280;38812;50.942;3.644;2023-10-08T02:45:40;102335.06;;;12.01;nan
52949;BME280;38812;50.942;3.644;2023-10-08T02:48:09;102328.00;;;12.09;nan
52949;BME280;38812;50.942;3.644;2023-10-08T02:50:41;102342.94;;;12.02;nan
52949;BME280;38812;50.942;3.644;2023-10-08T02:53:08;102335.94;;;11.98;nan
52949;BME280;38812;50.942;3.644;2023-10-08T02:55:40;102358.75;;;11.99;nan
52949;BME280;38812;50.942;3.644;2023-10-08T02:58:12;102357.03;;;11.89;nan
52949;BME280;38812;50.942;3.644;2023-10-08T03:00:43;102343.88;;;11.89;nan
52949;BME280;38812;50.942;3.644;2023-10-08T03:03:09;102376.34;;;11.85;nan
52949;BME280;38812;50.942;3.644;2023-10-08T03:05:44;102348.28;;;11.89;nan
52949;BME280;38812;50.942;3.644;2023-10-08T03:08:12;102342.13;;;11.88;nan
52949;BME280;38812;50.942;3.644;2023-10-08T03:10:38;102323.69;;;11.85;nan
52949;BME280;38812;50.942;3.644;2023-10-08T03:13:04;102322.81;;;11.83;nan
52949;BME280;38812;50.942;3.644;2023-10-08T03:15:30;102327.16;;;11.99;nan
52949;BME280;38812;50.942;3.644;2023-10-08T03:18:03;102379.84;;;11.93;nan
52949;BME280;38812;50.942;3.644;2023-10-08T03:20:38;102334.22;;;11.79;nan
52949;BME280;38812;50.942;3.644;2023-10-08T03:23:16;102330.72;;;11.86;nan
52949;BME280;38812;50.942;3.644;2023-10-08T03:25:53;102318.41;;;11.72;nan
52949;BME280;38812;50.942;3.644;2023-10-08T03:28:37;102321.03;;;11.70;nan
52949;BME280;38812;50.942;3.644;2023-10-08T03:31:04;102317.56;;;11.65;nan
52949;BME280;38812;50.942;3.644;2023-10-08T03:33:40;102325.44;;;11.74;nan
52949;BME280;38812;50.942;3.644;2023-10-08T03:36:06;102324.56;;;11.72;nan
52949;BME280;38812;50.942;3.644;2023-10-08T03:38:54;102322.84;;;11.65;nan
52949;BME280;38812;50.942;3.644;2023-10-08T03:41:25;102321.91;;;11.71;nan
52949;BME280;38812;50.942;3.644;2023-10-08T03:43:55;102320.16;;;11.71;nan
52949;BME280;38812;50.942;3.644;2023-10-08T03:46:38;102326.34;;;11.59;nan
52949;BME280;38812;50.942;3.644;2023-10-08T03:49:08;102314.06;;;11.54;nan
52949;BME280;38812;50.942;3.644;2023-10-08T03:51:40;102302.66;;;11.61;nan
52949;BME280;38812;50.942;3.644;2023-10-08T03:54:08;102293.00;;;11.55;nan
52949;BME280;38812;50.942;3.644;2023-10-08T03:56:40;102306.19;;;11.43;nan
52949;BME280;38812;50.942;3.644;2023-10-08T03:59:14;102299.19;;;11.44;nan
52949;BME280;38812;50.942;3.644;2023-10-08T04:01:42;102299.19;;;11.38;nan
52949;BME280;38812;50.942;3.644;2023-10-08T04:04:08;102298.31;;;11.46;nan
52949;BME280;38812;50.942;3.644;2023-10-08T04:06:41;102309.72;;;11.38;nan
52949;BME280;38812;50.942;3.644;2023-10-08T04:09:17;102310.59;;;11.30;nan
52949;BME280;38812;50.942;3.644;2023-10-08T04:11:46;102304.44;;;11.34;nan
52949;BME280;38812;50.942;3.644;2023-10-08T04:14:14;102309.72;;;11.34;nan
52949;BME280;38812;50.942;3.644;2023-10-08T04:16:42;102308.84;;;11.36;nan
52949;BME280;38812;50.942;3.644;2023-10-08T04:19:07;102302.69;;;11.40;nan
52949;BME280;38812;50.942;3.644;2023-10-08T04:21:33;102301.81;;;11.42;nan
52949;BME280;38812;50.942;3.644;2023-10-08T04:23:59;102315.81;;;11.52;nan
52949;BME280;38812;50.942;3.644;2023-10-08T04:26:34;102314.06;;;11.51;nan
52949;BME280;38812;50.942;3.644;2023-10-08T04:29:01;102302.69;;;11.44;nan
52949;BME280;38812;50.942;3.644;2023-10-08T04:31:32;102316.72;;;11.45;nan
52949;BME280;38812;50.942;3.644;2023-10-08T04:34:06;102307.97;;;11.40;nan
52949;BME280;38812;50.942;3.644;2023-10-08T04:36:43;102314.09;;;11.37;nan
52949;BME280;38812;50.942;3.644;2023-10-08T04:39:14;102312.34;;;11.42;nan
52949;BME280;38812;50.942;3.644;2023-10-08T04:41:46;102321.13;;;11.46;nan
52949;BME280;38812;50.942;3.644;2023-10-08T04:44:13;102318.47;;;11.43;nan
52949;BME280;38812;50.942;3.644;2023-10-08T04:46:44;102311.47;;;11.39;nan
52949;BME280;38812;50.942;3.644;2023-10-08T04:49:15;102307.97;;;11.44;nan
52949;BME280;38812;50.942;3.644;2023-10-08T04:51:58;102314.06;;;11.49;nan
52949;BME280;38812;50.942;3.644;2023-10-08T04:54:28;102318.44;;;11.52;nan
52949;BME280;38812;50.942;3.644;2023-10-08T04:56:57;102316.69;;;11.57;nan
52949;BME280;38812;50.942;3.644;2023-10-08T04:59:24;102302.66;;;11.58;nan
52949;BME280;38812;50.942;3.644;2023-10-08T05:01:58;102299.16;;;11.59;nan
52949;BME280;38812;50.942;3.644;2023-10-08T05:04:42;102305.28;;;11.61;nan
52949;BME280;38812;50.942;3.644;2023-10-08T05:07:24;102306.16;;;11.63;nan
52949;BME280;38812;50.942;3.644;2023-10-08T05:10:13;102296.47;;;11.71;nan
52949;BME280;38812;50.942;3.644;2023-10-08T05:12:52;102300.00;;;11.79;nan
52949;BME280;38812;50.942;3.644;2023-10-08T05:15:41;102300.88;;;11.90;nan
52949;BME280;38812;50.942;3.644;2023-10-08T05:18:12;102316.59;;;12.02;nan
52949;BME280;38812;50.942;3.644;2023-10-08T05:20:38;102315.66;;;12.13;nan
52949;BME280;38812;50.942;3.644;2023-10-08T05:23:25;102339.38;;;12.16;nan
52949;BME280;38812;50.942;3.644;2023-10-08T05:25:52;102321.78;;;12.24;nan
52949;BME280;38812;50.942;3.644;2023-10-08T05:28:38;102351.63;;;12.29;nan
52949;BME280;38812;50.942;3.644;2023-10-08T05:31:22;102324.41;;;12.33;nan
52949;BME280;38812;50.942;3.644;2023-10-08T05:34:02;102341.91;;;12.43;nan
52949;BME280;38812;50.942;3.644;2023-10-08T05:36:42;102339.25;;;12.46;nan
52949;BME280;38812;50.942;3.644;2023-10-08T05:39:26;102337.47;;;12.48;nan
52949;BME280;38812;50.942;3.644;2023-10-08T05:42:09;102337.47;;;12.51;nan
52949;BME280;38812;50.942;3.644;2023-10-08T05:45:07;102330.47;;;12.47;nan
52949;BME280;38812;50.942;3.644;2023-10-08T05:47:40;102319.91;;;12.47;nan
52949;BME280;38812;50.942;3.644;2023-10-08T05:50:16;102333.97;;;12.48;nan
52949;BME280;38812;50.942;3.644;2023-10-08T05:52:45;102333.97;;;12.49;nan
52949;BME280;38812;50.942;3.644;2023-10-08T05:55:27;102334.84;;;12.47;nan
52949;BME280;38812;50.942;3.644;2023-10-08T05:58:05;102333.09;;;12.46;nan
52949;BME280;38812;50.942;3.644;2023-10-08T06:00:45;102335.72;;;12.52;nan
52949;BME280;38812;50.942;3.644;2023-10-08T06:03:17;102327.84;;;12.44;nan
52949;BME280;38812;50.942;3.644;2023-10-08T06:06:02;102335.72;;;12.47;nan
52949;BME280;38812;50.942;3.644;2023-10-08T06:08:49;102325.19;;;12.44;nan
52949;BME280;38812;50.942;3.644;2023-10-08T06:11:18;102335.75;;;12.44;nan
52949;BME280;38812;50.942;3.644;2023-10-08T06:14:02;102340.13;;;12.42;nan
52949;BME280;38812;50.942;3.644;2023-10-08T06:16:28;102346.28;;;12.44;nan
52949;BME280;38812;50.942;3.644;2023-10-08T06:19:07;102345.41;;;12.44;nan
52949;BME280;38812;50.942;3.644;2023-10-08T06:21:33;102348.03;;;12.48;nan
52949;BME280;38812;50.942;3.644;2023-10-08T06:23:59;102348.91;;;12.50;nan
52949;BME280;38812;50.942;3.644;2023-10-08T06:26:25;102348.03;;;12.48;nan
52949;BME280;38812;50.942;3.644;2023-10-08T06:28:52;102346.25;;;12.53;nan
52949;BME280;38812;50.942;3.644;2023-10-08T06:31:22;102355.03;;;12.55;nan
52949;BME280;38812;50.942;3.644;2023-10-08T06:33:50;102355.84;;;12.60;nan
52949;BME280;38812;50.942;3.644;2023-10-08T06:36:15;102380.44;;;12.65;nan
52949;BME280;38812;50.942;3.644;2023-10-08T06:38:43;102350.56;;;12.68;nan
52949;BME280;38812;50.942;3.644;2023-10-08T06:41:12;102354.94;;;12.72;nan
52949;BME280;38812;50.942;3.644;2023-10-08T06:43:38;102362.75;;;12.81;nan
52949;BME280;38812;50.942;3.644;2023-10-08T06:46:04;102353.97;;;12.81;nan
52949;BME280;38812;50.942;3.644;2023-10-08T06:48:32;102355.69;;;12.92;nan
52949;BME280;38812;50.942;3.644;2023-10-08T06:50:59;102352.16;;;12.93;nan
52949;BME280;38812;50.942;3.644;2023-10-08T06:53:33;102354.72;;;12.99;nan
52949;BME280;38812;50.942;3.644;2023-10-08T06:55:59;102354.69;;;13.07;nan
52949;BME280;38812;50.942;3.644;2023-10-08T06:58:30;102349.38;;;13.13;nan
52949;BME280;38812;50.942;3.644;2023-10-08T07:00:59;102353.78;;;13.16;nan
52949;BME280;38812;50.942;3.644;2023-10-08T07:03:30;102365.09;;;13.30;nan
52949;BME280;38812;50.942;3.644;2023-10-08T07:05:57;102385.28;;;13.37;nan
52949;BME280;38812;50.942;3.644;2023-10-08T07:08:29;102391.38;;;13.44;nan
52949;BME280;38812;50.942;3.644;2023-10-08T07:10:57;102377.22;;;13.54;nan
52949;BME280;38812;50.942;3.644;2023-10-08T07:13:24;102378.84;;;13.67;nan
52949;BME280;38812;50.942;3.644;2023-10-08T07:15:51;102391.94;;;13.78;nan
52949;BME280;38812;50.942;3.644;2023-10-08T07:18:17;102383.00;;;13.91;nan
52949;BME280;38812;50.942;3.644;2023-10-08T07:20:50;102378.50;;;14.00;nan
52949;BME280;38812;50.942;3.644;2023-10-08T07:23:25;102385.50;;;14.06;nan
52949;BME280;38812;50.942;3.644;2023-10-08T07:25:58;102397.66;;;14.21;nan
52949;BME280;38812;50.942;3.644;2023-10-08T07:28:39;102389.66;;;14.28;nan
52949;BME280;38812;50.942;3.644;2023-10-08T07:31:15;102402.75;;;14.37;nan
52949;BME280;38812;50.942;3.644;2023-10-08T07:33:49;102397.38;;;14.48;nan
52949;BME280;38812;50.942;3.644;2023-10-08T07:36:30;102406.03;;;14.59;nan
52949;BME280;38812;50.942;3.644;2023-10-08T07:38:56;102402.41;;;14.66;nan
52949;BME280;38812;50.942;3.644;2023-10-08T07:41:21;102399.72;;;14.69;nan
52949;BME280;38812;50.942;3.644;2023-10-08T07:43:47;102400.47;;;14.78;nan
52949;BME280;38812;50.942;3.644;2023-10-08T07:46:21;102399.47;;;14.88;nan
52949;BME280;38812;50.942;3.644;2023-10-08T07:48:47;102404.63;;;14.95;nan
52949;BME280;38812;50.942;3.644;2023-10-08T07:51:14;102401.00;;;15.04;nan
52949;BME280;38812;50.942;3.644;2023-10-08T07:53:39;102406.06;;;15.18;nan
52949;BME280;38812;50.942;3.644;2023-10-08T07:56:07;102405.00;;;15.29;nan
52949;BME280;38812;50.942;3.644;2023-10-08T07:58:34;102408.41;;;15.37;nan
52949;BME280;38812;50.942;3.644;2023-10-08T08:01:03;102417.78;;;15.60;nan
52949;BME280;38812;50.942;3.644;2023-10-08T08:03:31;102409.44;;;15.81;nan
52949;BME280;38812;50.942;3.644;2023-10-08T08:05:57;102411.63;;;16.07;nan
52949;BME280;38812;50.942;3.644;2023-10-08T08:08:23;102420.13;;;16.24;nan
52949;BME280;38812;50.942;3.644;2023-10-08T08:10:52;102423.28;;;16.44;nan
52949;BME280;38812;50.942;3.644;2023-10-08T08:13:23;102419.44;;;16.58;nan
52949;BME280;38812;50.942;3.644;2023-10-08T08:15:53;102425.22;;;16.79;nan
52949;BME280;38812;50.942;3.644;2023-10-08T08:18:23;102427.75;;;17.23;nan
52949;BME280;38812;50.942;3.644;2023-10-08T08:20:49;102445.31;;;17.67;nan
52949;BME280;38812;50.942;3.644;2023-10-08T08:23:14;102438.03;;;18.07;nan
52949;BME280;38812;50.942;3.644;2023-10-08T08:25:42;102450.00;;;18.24;nan
52949;BME280;38812;50.942;3.644;2023-10-08T08:28:14;102448.88;;;18.63;nan
52949;BME280;38812;50.942;3.644;2023-10-08T08:30:43;102446.19;;;18.65;nan
52949;BME280;38812;50.942;3.644;2023-10-08T08:33:12;102458.72;;;18.91;nan
52949;BME280;38812;50.942;3.644;2023-10-08T08:35:38;102457.97;;;19.15;nan
52949;BME280;38812;50.942;3.644;2023-10-08T08:38:04;102463.59;;;19.34;nan
52949;BME280;38812;50.942;3.644;2023-10-08T08:40:31;102460.50;;;19.47;nan
52949;BME280;38812;50.942;3.644;2023-10-08T08:42:59;102467.06;;;19.36;nan
52949;BME280;38812;50.942;3.644;2023-10-08T08:45:27;102467.63;;;19.47;nan
52949;BME280;38812;50.942;3.644;2023-10-08T08:47:56;102468.72;;;19.40;nan
52949;BME280;38812;50.942;3.644;2023-10-08T08:50:22;102464.31;;;19.11;nan
52949;BME280;38812;50.942;3.644;2023-10-08T08:52:48;102457.97;;;19.15;nan
52949;BME280;38812;50.942;3.644;2023-10-08T08:55:14;102466.84;;;19.43;nan
52949;BME280;38812;50.942;3.644;2023-10-08T08:57:44;102472.72;;;19.81;nan
52949;BME280;38812;50.942;3.644;2023-10-08T09:00:15;102485.63;;;19.93;nan
52949;BME280;38812;50.942;3.644;2023-10-08T09:02:42;102465.06;;;20.22;nan
52949;BME280;38812;50.942;3.644;2023-10-08T09:05:10;102464.75;;;20.31;nan
52949;BME280;38812;50.942;3.644;2023-10-08T09:08:06;102475.88;;;20.43;nan
52949;BME280;38812;50.942;3.644;2023-10-08T09:10:33;102468.75;;;20.44;nan
52949;BME280;38812;50.942;3.644;2023-10-08T09:13:03;102476.84;;;20.66;nan
52949;BME280;38812;50.942;3.644;2023-10-08T09:15:29;102469.47;;;20.96;nan
52949;BME280;38812;50.942;3.644;2023-10-08T09:17:56;102467.13;;;21.10;nan
52949;BME280;38812;50.942;3.644;2023-10-08T09:20:23;102469.97;;;21.05;nan
52949;BME280;38812;50.942;3.644;2023-10-08T09:23:05;102459.22;;;20.60;nan
52949;BME280;38812;50.942;3.644;2023-10-08T09:25:35;102471.41;;;20.44;nan
52949;BME280;38812;50.942;3.644;2023-10-08T09:28:00;102471.69;;;20.11;nan
52949;BME280;38812;50.942;3.644;2023-10-08T09:30:29;102468.94;;;19.88;nan
52949;BME280;38812;50.942;3.644;2023-10-08T09:32:55;102495.59;;;19.88;nan
52949;BME280;38812;50.942;3.644;2023-10-08T09:35:24;102480.63;;;19.84;nan
52949;BME280;38812;50.942;3.644;2023-10-08T09:37:50;102488.16;;;20.23;nan
52949;BME280;38812;50.942;3.644;2023-10-08T09:40:17;102495.81;;;20.33;nan
52949;BME280;38812;50.942;3.644;2023-10-08T09:42:46;102492.59;;;20.73;nan
52949;BME280;38812;50.942;3.644;2023-10-08T09:45:13;102491.66;;;20.74;nan
52949;BME280;38812;50.942;3.644;2023-10-08T09:47:43;102490.47;;;20.58;nan
52949;BME280;38812;50.942;3.644;2023-10-08T09:50:11;102488.50;;;20.63;nan
52949;BME280;38812;50.942;3.644;2023-10-08T09:55:27;102488.72;;;20.80;nan
52949;BME280;38812;50.942;3.644;2023-10-08T09:57:53;102476.88;;;21.34;nan
52949;BME280;38812;50.942;3.644;2023-10-08T10:00:21;102469.84;;;21.08;nan
52949;BME280;38812;50.942;3.644;2023-10-08T10:02:57;102472.00;;;21.22;nan
52949;BME280;38812;50.942;3.644;2023-10-08T10:05:29;102475.06;;;21.11;nan
52949;BME280;38812;50.942;3.644;2023-10-08T10:07:55;102480.78;;;21.47;nan
52949;BME280;38812;50.942;3.644;2023-10-08T10:12:51;102478.16;;;22.10;nan
52949;BME280;38812;50.942;3.644;2023-10-08T10:15:20;102472.47;;;22.17;nan
52949;BME280;38812;50.942;3.644;2023-10-08T10:17:47;102493.63;;;21.81;nan
52949;BME280;38812;50.942;3.644;2023-10-08T10:20:15;102486.09;;;21.69;nan
52949;BME280;38812;50.942;3.644;2023-10-08T10:22:40;102493.16;;;21.92;nan
52949;BME280;38812;50.942;3.644;2023-10-08T10:25:08;102487.75;;;21.94;nan
52949;BME280;38812;50.942;3.644;2023-10-08T10:30:24;102486.59;;;21.79;nan
52949;BME280;38812;50.942;3.644;2023-10-08T10:32:53;102489.03;;;21.85;nan
52949;BME280;38812;50.942;3.644;2023-10-08T10:35:19;102482.13;;;22.01;nan
52949;BME280;38812;50.942;3.644;2023-10-08T10:37:48;102489.88;;;22.28;nan
52949;BME280;38812;50.942;3.644;2023-10-08T10:40:23;102481.31;;;22.40;nan
52949;BME280;38812;50.942;3.644;2023-10-08T10:43:05;102475.00;;;22.41;nan
52949;BME280;38812;50.942;3.644;2023-10-08T10:45:32;102478.28;;;22.47;nan
52949;BME280;38812;50.942;3.644;2023-10-08T10:48:09;102473.91;;;22.65;nan
52949;BME280;38812;50.942;3.644;2023-10-08T10:50:45;102481.13;;;22.63;nan
52949;BME280;38812;50.942;3.644;2023-10-08T10:53:40;102495.84;;;22.94;nan
52949;BME280;38812;50.942;3.644;2023-10-08T10:56:33;102488.75;;;22.93;nan
52949;BME280;38812;50.942;3.644;2023-10-08T10:59:05;102490.81;;;23.05;nan
52949;BME280;38812;50.942;3.644;2023-10-08T11:01:50;102478.94;;;23.10;nan
52949;BME280;38812;50.942;3.644;2023-10-08T11:04:30;102487.34;;;23.03;nan
52949;BME280;38812;50.942;3.644;2023-10-08T11:06:56;102485.88;;;22.96;nan
52949;BME280;38812;50.942;3.644;2023-10-08T11:09:26;102479.59;;;23.15;nan
52949;BME280;38812;50.942;3.644;2023-10-08T11:12:02;102480.31;;;23.19;nan
52949;BME280;38812;50.942;3.644;2023-10-08T11:14:42;102473.53;;;23.12;nan
52949;BME280;38812;50.942;3.644;2023-10-08T11:17:16;102478.22;;;23.07;nan
52949;BME280;38812;50.942;3.644;2023-10-08T11:19:45;102480.53;;;22.96;nan
52949;BME280;38812;50.942;3.644;2023-10-08T11:22:14;102462.22;;;23.41;nan
52949;BME280;38812;50.942;3.644;2023-10-08T11:24:44;102460.84;;;23.15;nan
52949;BME280;38812;50.942;3.644;2023-10-08T11:27:13;102454.66;;;23.32;nan
52949;BME280;38812;50.942;3.644;2023-10-08T11:29:43;102454.91;;;23.09;nan
52949;BME280;38812;50.942;3.644;2023-10-08T11:32:10;102448.63;;;23.27;nan
52949;BME280;38812;50.942;3.644;2023-10-08T11:34:40;102448.78;;;23.24;nan
52949;BME280;38812;50.942;3.644;2023-10-08T11:37:06;102450.09;;;23.34;nan
52949;BME280;38812;50.942;3.644;2023-10-08T11:39:48;102447.63;;;23.30;nan
52949;BME280;38812;50.942;3.644;2023-10-08T11:42:15;102446.38;;;23.18;nan
52949;BME280;38812;50.942;3.644;2023-10-08T11:44:59;102449.31;;;23.13;nan
52949;BME280;38812;50.942;3.644;2023-10-08T11:47:26;102440.16;;;23.36;nan
52949;BME280;38812;50.942;3.644;2023-10-08T11:49:56;102440.22;;;23.53;nan
52949;BME280;38812;50.942;3.644;2023-10-08T11:52:42;102428.53;;;23.54;nan
52949;BME280;38812;50.942;3.644;2023-10-08T11:55:08;102426.88;;;23.52;nan
52949;BME280;38812;50.942;3.644;2023-10-08T11:57:35;102432.09;;;23.55;nan
52949;BME280;38812;50.942;3.644;2023-10-08T12:00:13;102441.56;;;23.43;nan
52949;BME280;38812;50.942;3.644;2023-10-08T12:02:49;102429.88;;;23.44;nan
52949;BME280;38812;50.942;3.644;2023-10-08T12:05:14;102437.91;;;23.27;nan
52949;BME280;38812;50.942;3.644;2023-10-08T12:07:49;102446.47;;;23.35;nan
52949;BME280;38812;50.942;3.644;2023-10-08T12:10:19;102421.78;;;23.46;nan
52949;BME280;38812;50.942;3.644;2023-10-08T12:12:51;102424.50;;;23.27;nan
52949;BME280;38812;50.942;3.644;2023-10-08T12:15:21;102418.50;;;23.39;nan
52949;BME280;38812;50.942;3.644;2023-10-08T12:17:50;102416.09;;;23.35;nan
52949;BME280;38812;50.942;3.644;2023-10-08T12:20:37;102413.59;;;23.13;nan
52949;BME280;38812;50.942;3.644;2023-10-08T12:23:06;102419.50;;;23.38;nan
52949;BME280;38812;50.942;3.644;2023-10-08T12:25:36;102408.03;;;22.99;nan
52949;BME280;38812;50.942;3.644;2023-10-08T12:28:03;102403.88;;;23.10;nan
52949;BME280;38812;50.942;3.644;2023-10-08T12:30:32;102405.38;;;23.35;nan
52949;BME280;38812;50.942;3.644;2023-10-08T12:33:06;102404.81;;;23.45;nan
52949;BME280;38812;50.942;3.644;2023-10-08T12:35:32;102397.47;;;23.49;nan
52949;BME280;38812;50.942;3.644;2023-10-08T12:37:57;102390.75;;;23.59;nan
52949;BME280;38812;50.942;3.644;2023-10-08T12:40:23;102396.97;;;23.60;nan
52949;BME280;38812;50.942;3.644;2023-10-08T12:42:51;102395.31;;;23.74;nan
52949;BME280;38812;50.942;3.644;2023-10-08T12:45:17;102395.78;;;23.65;nan
52949;BME280;38812;50.942;3.644;2023-10-08T12:47:49;102400.75;;;23.55;nan
52949;BME280;38812;50.942;3.644;2023-10-08T12:50:19;102393.31;;;23.61;nan
52949;BME280;38812;50.942;3.644;2023-10-08T12:52:57;102391.91;;;23.71;nan
52949;BME280;38812;50.942;3.644;2023-10-08T12:55:29;102403.00;;;23.46;nan
52949;BME280;38812;50.942;3.644;2023-10-08T12:57:55;102395.63;;;23.15;nan
52949;BME280;38812;50.942;3.644;2023-10-08T13:00:28;102391.91;;;23.17;nan
52949;BME280;38812;50.942;3.644;2023-10-08T13:02:54;102395.44;;;23.18;nan
52949;BME280;38812;50.942;3.644;2023-10-08T13:05:22;102385.44;;;23.21;nan
52949;BME280;38812;50.942;3.644;2023-10-08T13:07:57;102388.56;;;23.31;nan
52949;BME280;38812;50.942;3.644;2023-10-08T13:10:28;102389.13;;;23.38;nan
52949;BME280;38812;50.942;3.644;2023-10-08T13:12:56;102380.81;;;23.25;nan
52949;BME280;38812;50.942;3.644;2023-10-08T13:15:22;102378.28;;;23.22;nan
52949;BME280;38812;50.942;3.644;2023-10-08T13:17:51;102377.53;;;23.37;nan
52949;BME280;38812;50.942;3.644;2023-10-08T13:20:17;102379.50;;;23.34;nan
52949;BME280;38812;50.942;3.644;2023-10-08T13:22:43;102377.47;;;23.20;nan
52949;BME280;38812;50.942;3.644;2023-10-08T13:25:09;102379.94;;;23.24;nan
52949;BME280;38812;50.942;3.644;2023-10-08T13:27:37;102378.03;;;23.09;nan
52949;BME280;38812;50.942;3.644;2023-10-08T13:30:06;102374.13;;;22.98;nan
52949;BME280;38812;50.942;3.644;2023-10-08T13:32:34;102372.09;;;23.03;nan
52949;BME280;38812;50.942;3.644;2023-10-08T13:35:01;102372.44;;;22.95;nan
52949;BME280;38812;50.942;3.644;2023-10-08T13:37:27;102370.66;;;22.96;nan